createdAt,value
2022-08-20T00:02:14.190Z,3.45
2022-08-20T00:04:41.992Z,3.20
2022-08-20T00:07:09.548Z,3.60
2022-08-20T00:09:37.137Z,2.95
2022-08-20T00:12:06.353Z,3.83
2022-08-20T00:14:35.076Z,3.53
2022-08-20T00:17:04.128Z,2.87
2022-08-20T00:19:31.886Z,3.45
2022-08-20T00:21:59.399Z,2.70
2022-08-20T00:24:26.868Z,2.70
2022-08-20T00:26:54.641Z,2.47
2022-08-20T00:29:22.570Z,2.85
2022-08-20T00:31:50.820Z,2.75
2022-08-20T00:34:18.678Z,2.65
2022-08-20T00:36:46.965Z,2.57
2022-08-20T00:39:14.611Z,2.58
2022-08-20T00:41:42.467Z,2.92
2022-08-20T00:44:17.230Z,2.58
2022-08-20T00:46:46.186Z,2.25
2022-08-20T00:49:17.887Z,2.67
2022-08-20T00:52:02.728Z,2.37
2022-08-20T00:54:35.695Z,2.10
2022-08-20T00:57:59.148Z,2.30
2022-08-20T01:00:38.813Z,2.35
2022-08-20T01:03:11.705Z,3.00
2022-08-20T01:05:44.735Z,2.42
2022-08-20T01:08:13.353Z,2.53
2022-08-20T01:10:48.220Z,2.60
2022-08-20T01:13:18.923Z,2.85
2022-08-20T01:15:48.784Z,3.07
2022-08-20T01:18:19.676Z,3.37
2022-08-20T01:20:50.637Z,3.70
2022-08-20T01:23:30.142Z,4.30
2022-08-20T01:26:08.784Z,5.05
2022-08-20T01:28:43.811Z,6.20
2022-08-20T01:31:21.309Z,5.60
2022-08-20T01:33:50.674Z,5.20
2022-08-20T01:36:22.658Z,5.43
2022-08-20T01:38:54.650Z,5.10
2022-08-20T01:41:28.239Z,5.70
2022-08-20T01:43:58.541Z,4.80
2022-08-20T01:46:29.504Z,5.35
2022-08-20T01:48:58.200Z,5.32
2022-08-20T01:51:29.807Z,5.45
2022-08-20T01:53:59.860Z,5.23
2022-08-20T01:56:30.528Z,5.75
2022-08-20T01:59:00.982Z,5.53
2022-08-20T02:01:46.497Z,5.57
2022-08-20T02:04:18.100Z,6.05
2022-08-20T02:06:57.190Z,6.50
2022-08-20T02:09:32.436Z,6.50
2022-08-20T02:12:00.571Z,5.82
2022-08-20T02:14:29.383Z,6.12
2022-08-20T02:16:58.620Z,6.40
2022-08-20T02:19:42.725Z,6.00
2022-08-20T02:22:21.660Z,4.97
2022-08-20T02:24:49.203Z,5.37
2022-08-20T02:27:18.767Z,5.18
2022-08-20T02:29:46.819Z,4.70
2022-08-20T02:32:24.490Z,4.60
2022-08-20T02:35:04.807Z,5.30
2022-08-20T02:37:32.366Z,4.95
2022-08-20T02:39:59.909Z,5.78
2022-08-20T02:42:27.720Z,5.18
2022-08-20T02:44:58.611Z,4.70
2022-08-20T02:47:29.356Z,4.95
2022-08-20T02:50:00.158Z,5.53
2022-08-20T02:52:27.757Z,5.15
2022-08-20T02:54:55.306Z,4.80
2022-08-20T02:57:23.066Z,5.87
2022-08-20T02:59:52.316Z,5.43
2022-08-20T03:02:19.875Z,5.12
2022-08-20T03:04:47.765Z,4.95
2022-08-20T03:07:15.245Z,4.65
2022-08-20T03:09:42.749Z,6.37
2022-08-20T03:12:10.863Z,6.47
2022-08-20T03:14:38.570Z,6.60
2022-08-20T03:17:06.060Z,8.77
2022-08-20T03:19:33.774Z,7.80
2022-08-20T03:22:01.259Z,8.00
2022-08-20T03:24:28.708Z,7.90
2022-08-20T03:26:56.482Z,8.02
2022-08-20T03:29:24.065Z,8.48
2022-08-20T03:31:51.512Z,9.00
2022-08-20T03:34:19.257Z,8.57
2022-08-20T03:36:46.802Z,8.48
2022-08-20T03:39:15.429Z,8.25
2022-08-20T03:41:43.171Z,6.90
2022-08-20T03:44:10.677Z,9.65
2022-08-20T03:46:39.541Z,10.20
2022-08-20T03:49:07.356Z,10.07
2022-08-20T03:51:56.270Z,7.30
2022-08-20T03:54:22.536Z,8.18
2022-08-20T03:56:50.041Z,10.30
2022-08-20T03:59:17.509Z,9.67
2022-08-20T04:01:46.712Z,8.00
2022-08-20T04:04:15.320Z,8.57
2022-08-20T04:06:43.103Z,8.30
2022-08-20T04:09:11.775Z,8.18
2022-08-20T04:11:41.000Z,7.83
2022-08-20T04:14:10.389Z,6.55
2022-08-20T04:16:40.275Z,6.15
2022-08-20T04:19:08.418Z,5.78
2022-08-20T04:21:36.587Z,6.55
2022-08-20T04:24:05.530Z,6.33
2022-08-20T04:26:35.236Z,5.53
2022-08-20T04:29:03.061Z,5.93
2022-08-20T04:31:33.900Z,5.00
2022-08-20T04:34:02.997Z,5.12
2022-08-20T04:36:31.203Z,4.43
2022-08-20T04:38:58.724Z,4.72
2022-08-20T04:41:26.613Z,4.50
2022-08-20T04:43:55.902Z,4.62
2022-08-20T04:46:25.661Z,4.32
2022-08-20T04:48:54.161Z,4.47
2022-08-20T04:51:23.281Z,3.97
2022-08-20T04:53:54.334Z,4.60
2022-08-20T04:56:24.391Z,4.37
2022-08-20T04:58:53.861Z,4.95
2022-08-20T05:01:23.765Z,4.50
2022-08-20T05:03:54.867Z,4.90
2022-08-20T05:06:30.787Z,4.47
2022-08-20T05:09:00.404Z,4.00
2022-08-20T05:11:35.013Z,4.93
2022-08-20T05:14:05.978Z,4.97
2022-08-20T05:16:38.998Z,3.83
2022-08-20T05:19:12.421Z,4.10
2022-08-20T05:21:40.431Z,4.00
2022-08-20T05:24:10.116Z,4.80
2022-08-20T05:26:37.651Z,3.77
2022-08-20T05:29:06.784Z,4.18
2022-08-20T05:31:35.102Z,3.28
2022-08-20T05:34:10.267Z,4.47
2022-08-20T05:36:40.838Z,4.55
2022-08-20T05:39:10.241Z,4.60
2022-08-20T05:41:39.002Z,5.30
2022-08-20T05:44:13.656Z,5.12
2022-08-20T05:46:43.424Z,5.43
2022-08-20T05:49:14.229Z,5.28
2022-08-20T05:51:41.826Z,6.50
2022-08-20T05:54:09.796Z,6.07
2022-08-20T05:56:37.882Z,7.05
2022-08-20T05:59:07.159Z,7.20
2022-08-20T06:01:36.983Z,4.55
2022-08-20T06:04:24.043Z,5.97
2022-08-20T06:06:57.783Z,6.05
2022-08-20T06:09:30.721Z,6.85
2022-08-20T06:12:04.514Z,4.47
2022-08-20T06:14:32.918Z,6.30
2022-08-20T06:17:09.248Z,5.07
2022-08-20T06:19:38.485Z,4.87
2022-08-20T06:22:17.904Z,6.15
2022-08-20T06:24:51.250Z,5.25
2022-08-20T06:27:19.018Z,3.92
2022-08-20T06:29:46.641Z,4.47
2022-08-20T06:32:14.381Z,4.20
2022-08-20T06:34:49.876Z,4.72
2022-08-20T06:37:27.664Z,5.68
2022-08-20T06:40:18.491Z,7.62
2022-08-20T06:42:48.847Z,8.57
2022-08-20T06:45:19.851Z,7.47
2022-08-20T06:47:48.101Z,9.23
2022-08-20T06:50:20.027Z,8.90
2022-08-20T06:52:51.914Z,7.25
2022-08-20T06:55:21.853Z,7.53
2022-08-20T06:58:00.055Z,7.30
2022-08-20T07:00:29.006Z,7.43
2022-08-20T07:02:59.725Z,6.80
2022-08-20T07:05:32.381Z,6.65
2022-08-20T07:08:00.884Z,6.50
2022-08-20T07:10:30.188Z,6.35
2022-08-20T07:12:59.249Z,6.28
2022-08-20T07:15:27.500Z,5.30
2022-08-20T07:18:00.932Z,6.25
2022-08-20T07:20:31.340Z,5.30
2022-08-20T07:23:00.623Z,5.65
2022-08-20T07:25:28.895Z,5.47
2022-08-20T07:28:02.064Z,4.93
2022-08-20T07:30:55.814Z,6.90
2022-08-20T07:33:28.225Z,6.07
2022-08-20T07:36:00.388Z,6.05
2022-08-20T07:38:30.062Z,5.68
2022-08-20T07:41:00.953Z,7.43
2022-08-20T07:43:29.482Z,6.50
2022-08-20T07:46:00.746Z,7.00
2022-08-20T07:48:31.949Z,6.93
2022-08-20T07:51:03.748Z,5.78
2022-08-20T07:53:35.812Z,6.60
2022-08-20T07:56:06.139Z,6.07
2022-08-20T07:58:36.664Z,5.87
2022-08-20T08:01:06.360Z,6.28
2022-08-20T08:03:39.951Z,6.32
2022-08-20T08:06:30.014Z,6.65
2022-08-20T08:09:07.784Z,6.60
2022-08-20T08:11:38.887Z,6.50
2022-08-20T08:14:08.692Z,6.53
2022-08-20T08:16:37.157Z,7.78
2022-08-20T08:19:06.996Z,6.55
2022-08-20T08:21:35.010Z,7.70
2022-08-20T08:24:03.171Z,7.93
2022-08-20T08:26:30.732Z,7.18
2022-08-20T08:28:58.694Z,7.85
2022-08-20T08:31:26.634Z,7.28
2022-08-20T08:33:54.369Z,7.82
2022-08-20T08:36:22.328Z,5.97
2022-08-20T08:38:50.636Z,7.45
2022-08-20T08:41:32.164Z,6.78
2022-08-20T08:44:25.027Z,6.68
2022-08-20T08:47:26.453Z,5.70
2022-08-20T08:49:54.436Z,5.53
2022-08-20T08:52:29.898Z,5.80
2022-08-20T08:55:02.432Z,5.18
2022-08-20T08:57:30.168Z,4.47
2022-08-20T09:00:21.303Z,4.10
2022-08-20T09:03:00.464Z,4.50
2022-08-20T09:05:44.258Z,4.32
2022-08-20T09:08:17.116Z,3.75
2022-08-20T09:10:45.823Z,4.18
2022-08-20T09:13:13.580Z,4.45
2022-08-20T09:15:41.189Z,3.83
2022-08-20T09:18:08.884Z,4.28
2022-08-20T09:20:36.744Z,3.35
2022-08-20T09:23:07.404Z,3.90
2022-08-20T09:25:34.968Z,4.12
2022-08-20T09:28:03.723Z,3.23
2022-08-20T09:30:31.645Z,3.80
2022-08-20T09:33:00.063Z,4.18
2022-08-20T09:35:28.320Z,4.05
2022-08-20T09:37:56.035Z,3.45
2022-08-20T09:40:23.671Z,3.37
2022-08-20T09:42:51.528Z,3.17
2022-08-20T09:45:19.188Z,3.08
2022-08-20T09:48:01.928Z,3.33
2022-08-20T09:50:33.181Z,2.95
2022-08-20T09:53:01.847Z,2.53
2022-08-20T09:55:38.562Z,2.53
2022-08-20T09:58:11.452Z,2.28
2022-08-20T10:00:40.059Z,2.53
2022-08-20T10:03:07.833Z,2.50
2022-08-20T10:05:35.331Z,2.37
2022-08-20T10:08:08.412Z,2.62
2022-08-20T10:10:36.497Z,2.65
2022-08-20T10:13:04.037Z,2.50
2022-08-20T10:15:32.113Z,3.00
2022-08-20T10:18:05.197Z,3.33
2022-08-20T10:20:33.090Z,2.95
2022-08-20T10:23:01.013Z,3.03
2022-08-20T10:25:28.959Z,2.65
2022-08-20T10:27:57.028Z,2.53
2022-08-20T10:30:25.339Z,2.63
2022-08-20T10:32:52.972Z,2.50
2022-08-20T10:35:20.627Z,3.03
2022-08-20T10:37:48.486Z,2.53
2022-08-20T10:40:16.706Z,2.25
2022-08-20T10:42:44.959Z,2.47
2022-08-20T10:45:15.106Z,3.03
2022-08-20T10:47:42.801Z,2.80
2022-08-20T10:50:14.686Z,2.97
2022-08-20T10:52:42.662Z,3.08
2022-08-20T10:55:10.563Z,2.77
2022-08-20T10:57:39.920Z,2.75
2022-08-20T11:00:10.200Z,2.92
2022-08-20T11:02:38.133Z,3.20
2022-08-20T11:05:06.891Z,2.87
2022-08-20T11:07:49.940Z,3.50
2022-08-20T11:10:26.260Z,2.80
2022-08-20T11:12:54.112Z,2.80
2022-08-20T11:15:21.667Z,2.60
2022-08-20T11:17:49.439Z,2.67
2022-08-20T11:20:19.745Z,2.47
2022-08-20T11:22:47.564Z,2.12
2022-08-20T11:25:15.080Z,2.70
2022-08-20T11:27:46.323Z,2.50
2022-08-20T11:30:23.339Z,2.40
2022-08-20T11:32:51.254Z,2.77
2022-08-20T11:38:09.041Z,2.35
2022-08-20T11:40:36.672Z,1.90
2022-08-20T11:43:14.700Z,2.17
2022-08-20T11:45:53.265Z,2.03
2022-08-20T11:48:21.174Z,1.85
2022-08-20T11:50:49.493Z,1.73
2022-08-20T11:53:17.491Z,1.50
2022-08-20T11:55:45.295Z,1.77
2022-08-20T11:58:13.557Z,2.07
2022-08-20T12:00:41.443Z,2.25
2022-08-20T12:03:10.209Z,1.67
2022-08-20T12:05:46.043Z,2.00
2022-08-20T12:08:25.258Z,2.10
2022-08-20T12:10:57.572Z,1.80
2022-08-20T12:13:30.693Z,1.60
2022-08-20T12:16:15.042Z,1.70
2022-08-20T12:18:42.929Z,1.52
2022-08-20T12:21:10.427Z,2.30
2022-08-20T12:23:38.157Z,1.87
2022-08-20T12:26:06.126Z,2.22
2022-08-20T12:28:33.772Z,1.87
2022-08-20T12:31:01.247Z,2.20
2022-08-20T12:33:28.983Z,2.12
2022-08-20T12:35:57.355Z,2.10
2022-08-20T12:38:24.866Z,2.20
2022-08-20T12:40:52.684Z,1.80
2022-08-20T12:43:24.696Z,2.10
2022-08-20T12:45:52.815Z,2.58
2022-08-20T12:48:21.110Z,2.20
2022-08-20T12:50:50.111Z,2.50
2022-08-20T12:53:18.577Z,1.92
2022-08-20T12:55:46.380Z,2.40
2022-08-20T12:58:13.867Z,2.75
2022-08-20T13:00:47.277Z,1.83
2022-08-20T13:03:19.639Z,1.90
2022-08-20T13:05:48.280Z,2.20
2022-08-20T13:08:17.655Z,2.60
2022-08-20T13:10:46.310Z,3.15
2022-08-20T13:13:17.459Z,2.07
2022-08-20T13:15:49.839Z,2.75
2022-08-20T13:18:17.992Z,2.28
2022-08-20T13:20:46.033Z,2.17
2022-08-20T13:23:13.508Z,2.03
2022-08-20T13:25:41.278Z,1.93
2022-08-20T13:28:08.793Z,2.47
2022-08-20T13:30:41.000Z,2.65
2022-08-20T13:33:09.065Z,2.35
2022-08-20T13:35:36.627Z,2.20
2022-08-20T13:38:04.173Z,3.40
2022-08-20T13:40:32.183Z,2.70
2022-08-20T13:43:05.966Z,2.08
2022-08-20T13:45:36.137Z,2.40
2022-08-20T13:48:04.712Z,2.50
2022-08-20T13:50:34.836Z,3.30
2022-08-20T13:53:02.967Z,3.55
2022-08-20T13:55:30.801Z,2.87
2022-08-20T13:57:58.368Z,2.83
2022-08-20T14:00:31.411Z,3.00
2022-08-20T14:03:03.636Z,3.20
2022-08-20T14:05:31.884Z,3.33
2022-08-20T14:08:10.585Z,3.20
2022-08-20T14:10:38.729Z,3.47
2022-08-20T14:13:07.044Z,2.80
2022-08-20T14:15:36.065Z,3.30
2022-08-20T14:18:04.958Z,3.00
2022-08-20T14:20:33.910Z,3.10
2022-08-20T14:23:02.090Z,3.28
2022-08-20T14:25:31.246Z,3.22
2022-08-20T14:27:59.460Z,3.00
2022-08-20T14:30:29.956Z,3.10
2022-08-20T14:32:57.923Z,2.55
2022-08-20T14:35:25.636Z,2.97
2022-08-20T14:37:54.393Z,2.70
2022-08-20T14:40:24.278Z,2.70
2022-08-20T14:42:52.482Z,2.97
2022-08-20T14:45:20.406Z,3.30
2022-08-20T14:47:53.757Z,2.70
2022-08-20T14:50:25.147Z,2.55
2022-08-20T14:52:53.881Z,2.70
2022-08-20T14:55:23.463Z,3.08
2022-08-20T14:57:51.664Z,3.00
2022-08-20T15:00:26.279Z,2.42
2022-08-20T15:02:54.144Z,2.80
2022-08-20T15:05:22.053Z,2.77
2022-08-20T15:07:52.007Z,2.42
2022-08-20T15:10:27.780Z,3.33
2022-08-20T15:12:55.514Z,2.95
2022-08-20T15:15:23.844Z,2.47
2022-08-20T15:17:57.848Z,3.23
2022-08-20T15:20:28.145Z,2.72
2022-08-20T15:22:55.733Z,3.08
2022-08-20T15:25:25.881Z,2.85
2022-08-20T15:28:00.829Z,2.35
2022-08-20T15:30:30.413Z,2.77
2022-08-20T15:32:58.762Z,3.17
2022-08-20T15:35:28.304Z,2.58
2022-08-20T15:37:58.121Z,2.35
2022-08-20T15:40:29.088Z,2.65
2022-08-20T15:42:58.478Z,2.87
2022-08-20T15:45:26.799Z,2.78
2022-08-20T15:48:08.273Z,3.60
2022-08-20T15:50:48.388Z,2.85
2022-08-20T15:53:33.803Z,3.03
2022-08-20T15:56:23.456Z,3.67
2022-08-20T15:59:34.382Z,3.80
2022-08-20T16:02:40.862Z,4.40
2022-08-20T16:05:33.570Z,3.55
2022-08-20T16:08:05.781Z,4.47
2022-08-20T16:10:58.770Z,6.03
2022-08-20T16:13:35.078Z,6.65
2022-08-20T16:16:03.767Z,6.35
2022-08-20T16:18:35.764Z,4.70
2022-08-20T16:21:09.697Z,5.93
2022-08-20T16:23:40.316Z,6.27
2022-08-20T16:26:27.072Z,5.87
2022-08-20T16:29:33.092Z,5.22
2022-08-20T16:32:05.689Z,4.62
2022-08-20T16:34:56.924Z,4.25
2022-08-20T16:37:56.250Z,3.23
2022-08-20T16:40:28.627Z,3.00
2022-08-20T16:43:03.735Z,3.40
2022-08-20T16:45:42.504Z,2.97
2022-08-20T16:48:18.654Z,2.37
2022-08-20T16:50:57.954Z,2.93
2022-08-20T16:53:26.742Z,2.95
2022-08-20T16:55:55.333Z,3.22
2022-08-20T16:58:22.916Z,3.22
2022-08-20T17:01:06.482Z,4.37
2022-08-20T17:03:39.660Z,3.73
2022-08-20T17:06:43.758Z,2.97
2022-08-20T17:09:21.826Z,2.83
2022-08-20T17:12:18.488Z,3.28
2022-08-20T17:14:50.396Z,3.62
2022-08-20T17:17:26.377Z,3.37
2022-08-20T17:19:58.575Z,3.20
2022-08-20T17:22:28.945Z,3.25
2022-08-20T17:24:57.516Z,3.00
2022-08-20T17:27:43.394Z,3.35
2022-08-20T17:30:22.694Z,3.33
2022-08-20T17:33:02.280Z,3.50
2022-08-20T17:35:31.550Z,2.70
2022-08-20T17:38:02.060Z,3.03
2022-08-20T17:40:41.588Z,4.30
2022-08-20T17:43:10.438Z,3.27
2022-08-20T17:45:42.295Z,2.58
2022-08-20T17:48:29.686Z,2.90
2022-08-20T17:50:58.244Z,2.42
2022-08-20T17:53:30.104Z,2.92
2022-08-20T17:56:01.606Z,2.40
2022-08-20T17:58:54.601Z,2.45
2022-08-20T18:01:24.003Z,2.50
2022-08-20T18:03:53.161Z,4.15
2022-08-20T18:06:30.537Z,3.15
2022-08-20T18:09:05.028Z,3.07
2022-08-20T18:11:40.600Z,3.60
2022-08-20T18:14:17.588Z,3.03
2022-08-20T18:16:57.352Z,2.80
2022-08-20T18:19:47.840Z,3.50
2022-08-20T18:22:29.010Z,3.33
2022-08-20T18:25:07.817Z,3.60
2022-08-20T18:27:43.237Z,3.47
2022-08-20T18:30:22.860Z,3.70
2022-08-20T18:33:01.291Z,3.17
2022-08-20T18:35:39.641Z,4.20
2022-08-20T18:38:28.382Z,3.80
2022-08-20T18:41:26.476Z,3.97
2022-08-20T18:44:13.088Z,4.00
2022-08-20T18:46:53.561Z,4.65
2022-08-20T18:49:29.906Z,4.10
2022-08-20T18:51:58.004Z,4.22
2022-08-20T18:54:28.853Z,3.92
2022-08-20T18:57:09.207Z,3.85
2022-08-20T18:59:43.360Z,4.28
2022-08-20T19:02:19.929Z,4.43
2022-08-20T19:04:54.536Z,4.30
2022-08-20T19:07:47.869Z,3.78
2022-08-20T19:10:32.656Z,4.37
2022-08-20T19:13:34.076Z,4.25
2022-08-20T19:16:06.303Z,4.43
2022-08-20T19:18:42.087Z,4.43
2022-08-20T19:21:15.827Z,4.45
2022-08-20T19:23:49.310Z,5.03
2022-08-20T19:26:25.084Z,4.87
2022-08-20T19:28:57.219Z,4.80
2022-08-20T19:31:29.965Z,4.47
2022-08-20T19:34:20.339Z,4.40
2022-08-20T19:37:12.749Z,4.68
2022-08-20T19:39:54.370Z,5.10
2022-08-20T19:42:26.743Z,4.40
2022-08-20T19:45:06.791Z,4.37
2022-08-20T19:47:38.483Z,4.40
2022-08-20T19:50:37.354Z,4.28
2022-08-20T19:53:13.623Z,4.80
2022-08-20T19:55:41.219Z,4.70
2022-08-20T19:58:18.830Z,4.82
2022-08-20T20:00:55.369Z,5.28
2022-08-20T20:03:26.542Z,5.00
2022-08-20T20:05:57.523Z,4.32
2022-08-20T20:08:39.271Z,5.27
2022-08-20T20:11:07.477Z,6.60
2022-08-20T20:13:35.965Z,5.37
2022-08-20T20:16:07.569Z,5.25
2022-08-20T20:18:38.098Z,4.97
2022-08-20T20:21:16.916Z,6.37
2022-08-20T20:23:53.319Z,5.87
2022-08-20T20:26:21.070Z,5.78
2022-08-20T20:29:01.024Z,6.28
2022-08-20T20:31:31.260Z,5.32
2022-08-20T20:34:02.089Z,5.73
2022-08-20T20:36:40.035Z,5.72
2022-08-20T20:39:14.522Z,5.65
2022-08-20T20:41:51.161Z,6.10
2022-08-20T20:44:26.584Z,5.90
2022-08-20T20:46:59.624Z,5.93
2022-08-20T20:49:29.792Z,5.97
2022-08-20T20:52:17.782Z,6.35
2022-08-20T20:54:46.546Z,5.60
2022-08-20T20:57:38.725Z,5.53
2022-08-20T21:00:12.261Z,4.57
2022-08-20T21:02:40.397Z,5.28
2022-08-20T21:05:08.819Z,4.37
2022-08-20T21:07:45.616Z,4.60
2022-08-20T21:10:20.405Z,4.68
2022-08-20T21:12:52.406Z,4.30
2022-08-20T21:15:22.681Z,4.28
2022-08-20T21:17:50.655Z,3.92
2022-08-20T21:20:18.618Z,4.15
2022-08-20T21:22:46.428Z,3.67
2022-08-20T21:25:14.214Z,3.83
2022-08-20T21:27:47.409Z,4.25
2022-08-20T21:30:16.703Z,4.15
2022-08-20T21:32:44.264Z,4.25
2022-08-20T21:35:11.908Z,4.07
2022-08-20T21:37:39.736Z,4.20
2022-08-20T21:40:09.632Z,4.20
2022-08-20T21:42:41.030Z,3.72
2022-08-20T21:45:14.498Z,4.00
2022-08-20T21:47:46.861Z,3.22
2022-08-20T21:50:19.077Z,3.40
2022-08-20T21:53:12.390Z,3.80
2022-08-20T21:55:39.577Z,3.00
2022-08-20T21:58:08.015Z,3.85
2022-08-20T22:00:51.627Z,3.35
2022-08-20T22:03:20.311Z,3.37
2022-08-20T22:05:48.780Z,3.30
2022-08-20T22:08:16.833Z,3.55
2022-08-20T22:10:44.587Z,3.33
2022-08-20T22:13:12.294Z,3.15
2022-08-20T22:15:40.520Z,3.67
2022-08-20T22:18:08.757Z,3.60
2022-08-20T22:20:36.453Z,3.22
2022-08-20T22:23:05.914Z,3.05
2022-08-20T22:25:36.113Z,3.65
2022-08-20T22:28:03.773Z,3.37
2022-08-20T22:30:31.564Z,2.90
2022-08-20T22:33:03.450Z,3.00
2022-08-20T22:35:32.063Z,3.37
2022-08-20T22:38:00.466Z,2.80
2022-08-20T22:40:28.036Z,3.23
2022-08-20T22:42:55.549Z,3.10
2022-08-20T22:45:23.293Z,3.33
2022-08-20T22:47:50.844Z,3.03
2022-08-20T22:50:19.584Z,3.00
2022-08-20T22:52:47.368Z,2.53
2022-08-20T22:55:14.896Z,2.65
2022-08-20T22:57:42.485Z,3.12
2022-08-20T23:00:14.741Z,2.70
2022-08-20T23:02:44.634Z,2.80
2022-08-20T23:05:15.308Z,2.83
2022-08-20T23:07:43.044Z,2.95
2022-08-20T23:10:10.577Z,2.33
2022-08-20T23:12:38.432Z,2.85
2022-08-20T23:15:06.781Z,2.78
2022-08-20T23:17:35.196Z,2.87
2022-08-20T23:20:04.697Z,2.50
2022-08-20T23:22:32.390Z,2.45
2022-08-20T23:25:00.605Z,2.37
2022-08-20T23:27:28.807Z,2.35
2022-08-20T23:29:56.336Z,2.67
2022-08-20T23:32:23.836Z,2.60
2022-08-20T23:34:51.870Z,2.72
2022-08-20T23:37:19.845Z,2.60
2022-08-20T23:39:47.927Z,2.70
2022-08-20T23:42:16.601Z,2.33
2022-08-20T23:44:45.395Z,2.55
2022-08-20T23:47:19.358Z,2.72
2022-08-20T23:49:47.571Z,2.70
2022-08-20T23:52:15.257Z,3.20
2022-08-20T23:54:42.997Z,3.07
2022-08-20T23:57:10.828Z,2.60
2022-08-20T23:59:38.697Z,2.95
